Great Yeldham, United Kingdom
Current Conditions -  °F | °C
As of 10:50 AM on Thursday 23 Oct 2014 (Local Time) from EGSS Reporting Station
Broken Clouds Broken Clouds  
Wind Chill: 55°   Ceiling: 2900
Heat Index: 55°   Visibility: 6mi
Dew Point: 50°   Wind: 13mph
Humidity: 82%   Direction: 230°SW
Pressure: 30.12"   Gusts: NA
Location:  52.01°N, 0.57°E
Report Text: EGSS 230950Z 23011KT 9999 BKN029 13/10 Q1020
Loading
Personal Weather Stations






























Interactive Weather Map
Tropical Storm Tracking
New forecast layout! Learn more

10-Day Weather Forecast

Advertisements
Track Severe Weather on mobile